createdAt,value
2024-04-11T00:00:52.451Z,101425.59
2024-04-11T00:06:15.043Z,101429.77
2024-04-11T00:11:19.623Z,101430.98
2024-04-11T00:16:22.328Z,101435.36
2024-04-11T00:21:25.067Z,101444.60
2024-04-11T00:26:27.951Z,101445.36
2024-04-11T00:31:30.454Z,101444.19
2024-04-11T00:36:33.784Z,101449.08
2024-04-11T00:41:37.634Z,101447.05
2024-04-11T00:46:41.497Z,101442.93
2024-04-11T00:51:45.008Z,101434.80
2024-04-11T00:56:47.590Z,101444.72
2024-04-11T01:01:50.183Z,101451.49
2024-04-11T01:07:08.005Z,101450.28
2024-04-11T01:12:15.092Z,101456.01
2024-04-11T01:17:19.336Z,101458.42
2024-04-11T01:22:22.344Z,101462.56
2024-04-11T01:27:25.250Z,101470.50
2024-04-11T01:32:29.128Z,101469.63
2024-04-11T01:37:32.213Z,101471.02
2024-04-11T01:42:35.301Z,101463.41
2024-04-11T01:47:40.860Z,101465.13
2024-04-11T01:52:43.624Z,101475.17
2024-04-11T01:57:46.144Z,101476.73
2024-04-11T02:02:50.675Z,101483.83
2024-04-11T02:07:53.466Z,101491.45
2024-04-11T02:12:58.185Z,101486.60
2024-04-11T02:18:03.005Z,101491.43
2024-04-11T02:23:08.350Z,101490.39
2024-04-11T02:28:10.795Z,101493.98
2024-04-11T02:33:13.519Z,101493.05
2024-04-11T02:38:16.230Z,101491.62
2024-04-11T02:43:19.486Z,101491.27
2024-04-11T02:48:22.190Z,101491.23
2024-04-11T02:53:24.876Z,101491.55
2024-04-11T02:58:28.758Z,101485.10
2024-04-11T03:03:35.628Z,101482.45
2024-04-11T03:08:42.509Z,101481.00
2024-04-11T03:13:45.104Z,101481.65
2024-04-11T03:18:47.743Z,101481.25
2024-04-11T03:23:51.457Z,101485.88
2024-04-11T03:28:54.317Z,101489.11
2024-04-11T03:33:58.673Z,101496.36
2024-04-11T03:39:02.726Z,101499.77
2024-04-11T03:44:05.425Z,101499.41
2024-04-11T03:49:07.960Z,101501.98
2024-04-11T03:54:13.015Z,101503.34
2024-04-11T03:59:15.461Z,101511.81
2024-04-11T04:04:20.681Z,101512.53
2024-04-11T04:09:23.221Z,101524.86
2024-04-11T04:14:26.058Z,101525.08
2024-04-11T04:19:28.621Z,101525.12
2024-04-11T04:24:31.236Z,101532.95
2024-04-11T04:29:39.051Z,101538.22
2024-04-11T04:34:41.917Z,101543.67
2024-04-11T04:39:45.941Z,101547.92
2024-04-11T04:44:49.230Z,101548.20
2024-04-11T04:49:54.495Z,101557.98
2024-04-11T04:54:56.963Z,101563.80
2024-04-11T04:59:59.556Z,101569.95
2024-04-11T05:05:04.810Z,101566.21
2024-04-11T05:10:07.475Z,101571.98
2024-04-11T05:15:13.860Z,101571.49
2024-04-11T05:20:24.470Z,101572.02
2024-04-11T05:25:33.439Z,101578.77
2024-04-11T05:30:41.813Z,101587.23
2024-04-11T05:35:44.448Z,101587.90
2024-04-11T05:40:47.609Z,101587.64
2024-04-11T05:45:51.258Z,101592.23
2024-04-11T05:50:53.917Z,101590.03
2024-04-11T05:55:58.684Z,101591.08
2024-04-11T06:01:07.114Z,101594.20
2024-04-11T06:06:14.359Z,101593.95
2024-04-11T06:11:18.616Z,101595.79
2024-04-11T06:16:23.851Z,101597.70
2024-04-11T06:21:34.019Z,101600.58
2024-04-11T06:26:37.908Z,101602.68
2024-04-11T06:31:41.606Z,101605.81
2024-04-11T06:36:48.924Z,101605.63
2024-04-11T06:41:53.002Z,101608.36
2024-04-11T06:46:55.626Z,101609.66
2024-04-11T06:51:58.465Z,101610.27
2024-04-11T06:57:04.482Z,101611.47
2024-04-11T07:02:10.665Z,101612.36
2024-04-11T07:07:13.249Z,101613.79
2024-04-11T07:12:29.316Z,101617.14
2024-04-11T07:17:33.929Z,101619.21
2024-04-11T07:22:45.310Z,101623.23
2024-04-11T07:27:47.888Z,101617.09
2024-04-11T07:32:52.929Z,101615.16
2024-04-11T07:37:58.414Z,101615.45
2024-04-11T07:43:09.631Z,101616.80
2024-04-11T07:48:19.006Z,101613.85
2024-04-11T07:53:27.321Z,101609.17
2024-04-11T07:58:30.035Z,101615.96
2024-04-11T08:03:35.845Z,101613.11
2024-04-11T08:08:38.761Z,101615.70
2024-04-11T08:13:43.414Z,101614.69
2024-04-11T08:18:48.299Z,101601.94
2024-04-11T08:23:51.076Z,101602.45
2024-04-11T08:28:56.847Z,101604.77
2024-04-11T08:33:59.629Z,101595.79
2024-04-11T08:39:05.820Z,101593.77
2024-04-11T08:44:08.765Z,101589.54
2024-04-11T08:49:11.815Z,101587.44
2024-04-11T08:54:17.634Z,101583.63
2024-04-11T08:59:25.066Z,101573.97
2024-04-11T09:04:29.198Z,101571.36
2024-04-11T09:09:32.533Z,101570.23
2024-04-11T09:14:36.254Z,101571.26
2024-04-11T09:19:41.507Z,101564.96
2024-04-11T09:24:45.269Z,101569.06
2024-04-11T09:29:48.077Z,101571.95
2024-04-11T09:34:54.420Z,101573.36
2024-04-11T09:39:58.267Z,101573.12
2024-04-11T09:45:04.600Z,101569.70
2024-04-11T09:50:10.784Z,101570.34
2024-04-11T09:55:16.512Z,101575.91
2024-04-11T10:00:38.034Z,101557.61
2024-04-11T10:05:47.604Z,101567.93
2024-04-11T10:10:59.430Z,101568.84
2024-04-11T10:16:05.992Z,101565.28
2024-04-11T10:21:13.106Z,101559.20
2024-04-11T10:26:16.125Z,101563.69
2024-04-11T10:31:23.464Z,101557.42
2024-04-11T10:36:34.965Z,101545.92
2024-04-11T10:41:39.061Z,101549.59
2024-04-11T10:46:42.423Z,101542.65
2024-04-11T10:51:51.937Z,101538.70
2024-04-11T10:56:55.738Z,101528.79
2024-04-11T11:02:10.705Z,101525.45
2024-04-11T11:07:14.588Z,101524.34
2024-04-11T11:12:17.957Z,101524.45
2024-04-11T11:17:22.054Z,101521.60
2024-04-11T11:22:40.172Z,101513.32
2024-04-11T11:27:51.430Z,101510.73
2024-04-11T11:33:20.617Z,101500.30
2024-04-11T11:38:36.136Z,101499.52
2024-04-11T11:44:00.392Z,101498.55
2024-04-11T11:49:04.870Z,101491.04
2024-04-11T11:54:13.852Z,101494.73
2024-04-11T11:59:21.206Z,101499.52
2024-04-11T12:04:24.269Z,101495.23
2024-04-11T12:09:32.716Z,101487.04
2024-04-11T12:14:36.459Z,101485.78
2024-04-11T12:19:41.398Z,101475.14
2024-04-11T12:24:46.182Z,101469.95
2024-04-11T12:29:50.232Z,101473.14
2024-04-11T12:34:56.506Z,101475.39
2024-04-11T12:39:59.174Z,101465.45
2024-04-11T12:45:09.016Z,101457.48
2024-04-11T12:50:16.202Z,101454.63
2024-04-11T12:55:25.596Z,101450.86
2024-04-11T13:00:43.838Z,101451.27
2024-04-11T13:05:52.932Z,101447.27
2024-04-11T13:10:56.488Z,101442.59
2024-04-11T13:16:01.786Z,101434.05
2024-04-11T13:21:15.244Z,101430.92
2024-04-11T13:26:18.649Z,101429.15
2024-04-11T13:31:22.127Z,101430.67
2024-04-11T13:36:25.594Z,101424.08
2024-04-11T13:41:49.363Z,101414.73
2024-04-11T13:46:52.337Z,101412.14
2024-04-11T13:51:55.258Z,101403.06
2024-04-11T13:57:01.813Z,101397.77
2024-04-11T14:02:10.895Z,101397.77
2024-04-11T14:07:20.802Z,101397.16
2024-04-11T14:12:25.805Z,101377.42
2024-04-11T14:17:29.496Z,101375.73
2024-04-11T14:22:37.145Z,101374.06
2024-04-11T14:27:39.911Z,101373.98
2024-04-11T14:32:51.581Z,101372.30
2024-04-11T14:37:57.281Z,101360.66
2024-04-11T14:43:04.467Z,101346.70
2024-04-11T14:48:23.682Z,101350.04
2024-04-11T14:53:26.797Z,101342.11
2024-04-11T14:58:32.911Z,101337.40
2024-04-11T15:03:42.288Z,101327.84
2024-04-11T15:08:49.761Z,101334.58
2024-04-11T15:13:54.640Z,101332.33
2024-04-11T15:18:57.435Z,101325.49
2024-04-11T15:24:00.769Z,101328.17
2024-04-11T15:29:13.371Z,101320.83
2024-04-11T15:34:18.020Z,101318.46
2024-04-11T15:39:29.641Z,101316.16
2024-04-11T15:44:38.399Z,101309.64
2024-04-11T15:49:45.437Z,101303.80
2024-04-11T15:55:12.789Z,101299.86
2024-04-11T16:00:28.348Z,101291.63
2024-04-11T16:05:35.652Z,101284.85
2024-04-11T16:10:40.069Z,101282.08
2024-04-11T16:15:44.806Z,101278.68
2024-04-11T16:20:50.347Z,101268.02
2024-04-11T16:25:57.389Z,101268.47
2024-04-11T16:31:23.150Z,101271.37
2024-04-11T16:36:31.554Z,101262.00
2024-04-11T16:41:40.752Z,101262.42
2024-04-11T16:46:52.449Z,101256.30
2024-04-11T16:51:55.050Z,101255.32
2024-04-11T16:56:58.678Z,101252.80
2024-04-11T17:02:04.066Z,101250.39
2024-04-11T17:07:19.483Z,101245.27
2024-04-11T17:12:31.112Z,101246.13
2024-04-11T17:17:36.585Z,101240.02
2024-04-11T17:22:51.556Z,101236.42
2024-04-11T17:28:13.268Z,101232.10
2024-04-11T17:33:32.371Z,101233.95
2024-04-11T17:38:48.978Z,101236.47
2024-04-11T17:43:57.436Z,101242.10
2024-04-11T17:49:17.196Z,101241.70
2024-04-11T17:54:20.010Z,101249.77
2024-04-11T17:59:30.776Z,101248.63
2024-04-11T18:04:38.088Z,101245.87
2024-04-11T18:09:44.822Z,101255.08
2024-04-11T18:14:47.731Z,101259.43
2024-04-11T18:19:57.598Z,101255.34
2024-04-11T18:25:07.394Z,101260.38
2024-04-11T18:30:16.898Z,101261.11
2024-04-11T18:35:19.840Z,101260.11
2024-04-11T18:40:25.025Z,101264.73
2024-04-11T18:45:37.248Z,101265.66
2024-04-11T18:50:39.953Z,101264.36
2024-04-11T18:55:50.510Z,101264.76
2024-04-11T19:00:58.333Z,101260.05
2024-04-11T19:06:06.325Z,101259.12
2024-04-11T19:11:09.968Z,101258.68
2024-04-11T19:16:19.717Z,101263.46
2024-04-11T19:21:23.466Z,101255.48
2024-04-11T19:26:28.029Z,101255.92
2024-04-11T19:31:33.748Z,101253.39
2024-04-11T19:36:38.686Z,101252.98
2024-04-11T19:41:43.436Z,101253.13
2024-04-11T19:46:47.234Z,101254.35
2024-04-11T19:51:51.531Z,101250.84
2024-04-11T19:57:06.767Z,101255.71
2024-04-11T20:02:10.634Z,101259.46
2024-04-11T20:07:18.042Z,101260.88
2024-04-11T20:12:29.688Z,101253.33
2024-04-11T20:17:32.861Z,101254.90
2024-04-11T20:22:37.836Z,101248.41
2024-04-11T20:27:47.785Z,101245.16
2024-04-11T20:32:52.200Z,101246.48
2024-04-11T20:38:17.045Z,101250.88
2024-04-11T20:43:37.812Z,101253.92
2024-04-11T20:48:57.109Z,101256.01
2024-04-11T20:54:20.883Z,101251.59
2024-04-11T20:59:43.104Z,101255.04
2024-04-11T21:05:04.348Z,101259.48
2024-04-11T21:10:26.073Z,101255.40
2024-04-11T21:15:47.971Z,101264.09
2024-04-11T21:21:09.306Z,101265.30
2024-04-11T21:26:30.715Z,101265.81
2024-04-11T21:31:53.839Z,101264.91
2024-04-11T21:37:03.803Z,101263.43
2024-04-11T21:42:09.717Z,101271.13
2024-04-11T21:47:15.131Z,101274.48
2024-04-11T21:52:20.324Z,101272.59
2024-04-11T21:57:27.787Z,101273.90
2024-04-11T22:02:30.905Z,101275.79
2024-04-11T22:07:35.460Z,101277.98
2024-04-11T22:12:42.566Z,101275.95
2024-04-11T22:17:53.381Z,101278.34
2024-04-11T22:23:01.094Z,101277.11
2024-04-11T22:28:03.955Z,101276.45
2024-04-11T22:33:18.923Z,101279.23
2024-04-11T22:38:26.496Z,101270.60
2024-04-11T22:43:35.928Z,101274.42
2024-04-11T22:48:45.014Z,101277.72
2024-04-11T22:53:50.730Z,101288.51
2024-04-11T22:58:59.899Z,101286.18
2024-04-11T23:04:02.485Z,101283.56
2024-04-11T23:09:10.523Z,101290.75
2024-04-11T23:14:13.095Z,101298.11
2024-04-11T23:19:20.932Z,101306.35
2024-04-11T23:24:23.444Z,101307.16
2024-04-11T23:29:35.605Z,101310.77
2024-04-11T23:34:39.501Z,101308.17
2024-04-11T23:39:44.234Z,101308.39
2024-04-11T23:44:48.790Z,101309.63
2024-04-11T23:49:51.259Z,101306.63
2024-04-11T23:54:53.792Z,101306.31
2024-04-11T23:59:56.403Z,101305.45
